sensor_id;sensor_type;location;lat;lon;timestamp;P1;durP1;ratioP1;P2;durP2;ratioP2
71715;SDS011;59568;52.128;5.434;2023-02-08T00:00:42;17.52;;;9.48;;
71715;SDS011;59568;52.128;5.434;2023-02-08T00:03:08;20.02;;;10.75;;
71715;SDS011;59568;52.128;5.434;2023-02-08T00:05:36;21.07;;;10.17;;
71715;SDS011;59568;52.128;5.434;2023-02-08T00:08:03;17.92;;;9.82;;
71715;SDS011;59568;52.128;5.434;2023-02-08T00:10:30;20.95;;;10.20;;
71715;SDS011;59568;52.128;5.434;2023-02-08T00:12:56;20.88;;;10.45;;
71715;SDS011;59568;52.128;5.434;2023-02-08T00:15:23;18.98;;;9.38;;
71715;SDS011;59568;52.128;5.434;2023-02-08T00:17:50;23.00;;;10.17;;
71715;SDS011;59568;52.128;5.434;2023-02-08T00:20:16;17.70;;;9.18;;
71715;SDS011;59568;52.128;5.434;2023-02-08T00:22:43;21.10;;;10.15;;
71715;SDS011;59568;52.128;5.434;2023-02-08T00:25:10;20.52;;;10.05;;
71715;SDS011;59568;52.128;5.434;2023-02-08T00:27:36;21.02;;;10.65;;
71715;SDS011;59568;52.128;5.434;2023-02-08T00:30:03;21.80;;;11.13;;
71715;SDS011;59568;52.128;5.434;2023-02-08T00:32:30;17.35;;;9.43;;
71715;SDS011;59568;52.128;5.434;2023-02-08T00:34:57;20.50;;;10.40;;
71715;SDS011;59568;52.128;5.434;2023-02-08T00:37:23;16.33;;;9.07;;
71715;SDS011;59568;52.128;5.434;2023-02-08T00:39:50;19.20;;;9.93;;
71715;SDS011;59568;52.128;5.434;2023-02-08T00:42:16;18.07;;;8.77;;
71715;SDS011;59568;52.128;5.434;2023-02-08T00:44:43;17.60;;;9.25;;
71715;SDS011;59568;52.128;5.434;2023-02-08T00:47:10;21.80;;;9.80;;
71715;SDS011;59568;52.128;5.434;2023-02-08T00:49:37;22.73;;;10.48;;
71715;SDS011;59568;52.128;5.434;2023-02-08T00:52:03;20.67;;;10.52;;
71715;SDS011;59568;52.128;5.434;2023-02-08T00:54:30;17.10;;;8.90;;
71715;SDS011;59568;52.128;5.434;2023-02-08T00:56:56;20.00;;;9.98;;
71715;SDS011;59568;52.128;5.434;2023-02-08T00:59:23;20.73;;;10.07;;
71715;SDS011;59568;52.128;5.434;2023-02-08T01:01:49;21.48;;;10.45;;
71715;SDS011;59568;52.128;5.434;2023-02-08T01:04:16;17.40;;;9.18;;
71715;SDS011;59568;52.128;5.434;2023-02-08T01:06:42;19.67;;;10.07;;
71715;SDS011;59568;52.128;5.434;2023-02-08T01:09:09;18.90;;;10.25;;
71715;SDS011;59568;52.128;5.434;2023-02-08T01:11:36;20.67;;;10.25;;
71715;SDS011;59568;52.128;5.434;2023-02-08T01:14:03;20.10;;;10.07;;
71715;SDS011;59568;52.128;5.434;2023-02-08T01:16:31;19.88;;;10.02;;
71715;SDS011;59568;52.128;5.434;2023-02-08T01:18:59;16.80;;;9.70;;
71715;SDS011;59568;52.128;5.434;2023-02-08T01:21:29;14.48;;;8.85;;
71715;SDS011;59568;52.128;5.434;2023-02-08T01:24:00;21.80;;;9.60;;
71715;SDS011;59568;52.128;5.434;2023-02-08T01:26:27;17.83;;;9.80;;
71715;SDS011;59568;52.128;5.434;2023-02-08T01:28:55;26.02;;;10.18;;
71715;SDS011;59568;52.128;5.434;2023-02-08T01:31:23;16.53;;;10.20;;
71715;SDS011;59568;52.128;5.434;2023-02-08T01:33:57;21.67;;;10.63;;
71715;SDS011;59568;52.128;5.434;2023-02-08T01:36:25;20.45;;;10.73;;
71715;SDS011;59568;52.128;5.434;2023-02-08T01:38:53;18.30;;;9.00;;
71715;SDS011;59568;52.128;5.434;2023-02-08T01:41:30;17.02;;;9.52;;
71715;SDS011;59568;52.128;5.434;2023-02-08T01:46:35;21.85;;;11.52;;
71715;SDS011;59568;52.128;5.434;2023-02-08T01:51:56;18.27;;;10.95;;
71715;SDS011;59568;52.128;5.434;2023-02-08T01:54:31;20.90;;;10.45;;
71715;SDS011;59568;52.128;5.434;2023-02-08T01:57:01;16.30;;;9.07;;
71715;SDS011;59568;52.128;5.434;2023-02-08T01:59:33;15.95;;;10.50;;
71715;SDS011;59568;52.128;5.434;2023-02-08T02:02:07;17.13;;;8.77;;
71715;SDS011;59568;52.128;5.434;2023-02-08T02:04:36;17.27;;;9.68;;
71715;SDS011;59568;52.128;5.434;2023-02-08T02:07:03;18.33;;;10.00;;
71715;SDS011;59568;52.128;5.434;2023-02-08T02:09:44;19.23;;;10.37;;
71715;SDS011;59568;52.128;5.434;2023-02-08T02:12:17;20.52;;;10.13;;
71715;SDS011;59568;52.128;5.434;2023-02-08T02:14:46;20.15;;;10.43;;
71715;SDS011;59568;52.128;5.434;2023-02-08T02:17:13;16.23;;;9.23;;
71715;SDS011;59568;52.128;5.434;2023-02-08T02:22:56;20.10;;;9.03;;
71715;SDS011;59568;52.128;5.434;2023-02-08T02:26:20;17.60;;;9.48;;
71715;SDS011;59568;52.128;5.434;2023-02-08T02:43:24;18.95;;;9.32;;
71715;SDS011;59568;52.128;5.434;2023-02-08T02:51:38;13.00;;;7.80;;
71715;SDS011;59568;52.128;5.434;2023-02-08T02:54:13;19.73;;;9.50;;
71715;SDS011;59568;52.128;5.434;2023-02-08T02:56:44;19.40;;;9.15;;
71715;SDS011;59568;52.128;5.434;2023-02-08T02:59:14;17.83;;;9.13;;
71715;SDS011;59568;52.128;5.434;2023-02-08T03:01:42;17.55;;;9.57;;
71715;SDS011;59568;52.128;5.434;2023-02-08T03:04:56;14.33;;;8.40;;
71715;SDS011;59568;52.128;5.434;2023-02-08T03:23:51;16.17;;;9.57;;
71715;SDS011;59568;52.128;5.434;2023-02-08T03:26:35;17.85;;;9.95;;
71715;SDS011;59568;52.128;5.434;2023-02-08T03:34:51;17.45;;;7.82;;
71715;SDS011;59568;52.128;5.434;2023-02-08T03:37:26;18.92;;;9.27;;
71715;SDS011;59568;52.128;5.434;2023-02-08T03:40:00;15.90;;;8.82;;
71715;SDS011;59568;52.128;5.434;2023-02-08T03:42:31;20.25;;;9.50;;
71715;SDS011;59568;52.128;5.434;2023-02-08T03:45:02;16.30;;;8.60;;
71715;SDS011;59568;52.128;5.434;2023-02-08T03:47:35;16.30;;;8.82;;
71715;SDS011;59568;52.128;5.434;2023-02-08T03:50:08;17.52;;;8.63;;
71715;SDS011;59568;52.128;5.434;2023-02-08T03:52:37;15.05;;;8.50;;
71715;SDS011;59568;52.128;5.434;2023-02-08T03:55:06;17.02;;;9.13;;
71715;SDS011;59568;52.128;5.434;2023-02-08T03:57:48;17.47;;;7.80;;
71715;SDS011;59568;52.128;5.434;2023-02-08T04:00:20;17.58;;;9.30;;
71715;SDS011;59568;52.128;5.434;2023-02-08T04:02:55;16.17;;;8.48;;
71715;SDS011;59568;52.128;5.434;2023-02-08T04:05:26;18.15;;;9.07;;
71715;SDS011;59568;52.128;5.434;2023-02-08T04:07:54;17.02;;;8.95;;
71715;SDS011;59568;52.128;5.434;2023-02-08T04:10:21;16.80;;;8.50;;
71715;SDS011;59568;52.128;5.434;2023-02-08T04:12:48;23.98;;;9.13;;
71715;SDS011;59568;52.128;5.434;2023-02-08T04:15:15;14.38;;;8.77;;
71715;SDS011;59568;52.128;5.434;2023-02-08T04:17:43;17.98;;;8.48;;
71715;SDS011;59568;52.128;5.434;2023-02-08T04:20:09;15.50;;;8.40;;
71715;SDS011;59568;52.128;5.434;2023-02-08T04:22:36;19.20;;;9.50;;
71715;SDS011;59568;52.128;5.434;2023-02-08T04:25:03;14.27;;;8.50;;
71715;SDS011;59568;52.128;5.434;2023-02-08T04:27:30;15.95;;;7.88;;
71715;SDS011;59568;52.128;5.434;2023-02-08T04:29:56;17.50;;;9.43;;
71715;SDS011;59568;52.128;5.434;2023-02-08T04:32:23;14.95;;;8.90;;
71715;SDS011;59568;52.128;5.434;2023-02-08T04:34:50;15.70;;;8.13;;
71715;SDS011;59568;52.128;5.434;2023-02-08T04:37:17;14.60;;;7.68;;
71715;SDS011;59568;52.128;5.434;2023-02-08T04:39:43;16.83;;;8.00;;
71715;SDS011;59568;52.128;5.434;2023-02-08T04:42:10;14.38;;;8.55;;
71715;SDS011;59568;52.128;5.434;2023-02-08T04:44:36;15.75;;;7.95;;
71715;SDS011;59568;52.128;5.434;2023-02-08T04:47:03;19.63;;;8.73;;
71715;SDS011;59568;52.128;5.434;2023-02-08T04:49:30;16.52;;;7.95;;
71715;SDS011;59568;52.128;5.434;2023-02-08T04:51:56;15.18;;;7.75;;
71715;SDS011;59568;52.128;5.434;2023-02-08T04:54:23;18.45;;;8.80;;
71715;SDS011;59568;52.128;5.434;2023-02-08T04:56:49;15.45;;;8.25;;
71715;SDS011;59568;52.128;5.434;2023-02-08T04:59:16;15.93;;;9.10;;
71715;SDS011;59568;52.128;5.434;2023-02-08T05:01:44;14.93;;;7.85;;
71715;SDS011;59568;52.128;5.434;2023-02-08T05:04:10;18.13;;;8.52;;
71715;SDS011;59568;52.128;5.434;2023-02-08T05:06:37;17.17;;;8.30;;
71715;SDS011;59568;52.128;5.434;2023-02-08T05:09:05;16.10;;;8.52;;
71715;SDS011;59568;52.128;5.434;2023-02-08T05:11:34;18.03;;;8.40;;
71715;SDS011;59568;52.128;5.434;2023-02-08T05:14:02;15.50;;;7.95;;
71715;SDS011;59568;52.128;5.434;2023-02-08T05:16:29;16.75;;;7.80;;
71715;SDS011;59568;52.128;5.434;2023-02-08T05:18:56;14.95;;;7.28;;
71715;SDS011;59568;52.128;5.434;2023-02-08T05:21:22;14.60;;;7.47;;
71715;SDS011;59568;52.128;5.434;2023-02-08T05:23:49;15.60;;;8.13;;
71715;SDS011;59568;52.128;5.434;2023-02-08T05:26:17;15.80;;;7.45;;
71715;SDS011;59568;52.128;5.434;2023-02-08T05:28:44;15.77;;;7.65;;
71715;SDS011;59568;52.128;5.434;2023-02-08T05:33:38;16.30;;;8.10;;
71715;SDS011;59568;52.128;5.434;2023-02-08T05:36:05;13.77;;;7.57;;
71715;SDS011;59568;52.128;5.434;2023-02-08T05:38:31;11.25;;;6.15;;
71715;SDS011;59568;52.128;5.434;2023-02-08T05:40:58;17.73;;;7.80;;
71715;SDS011;59568;52.128;5.434;2023-02-08T05:43:24;14.63;;;6.95;;
71715;SDS011;59568;52.128;5.434;2023-02-08T05:45:51;13.98;;;7.40;;
71715;SDS011;59568;52.128;5.434;2023-02-08T05:48:18;12.40;;;7.10;;
71715;SDS011;59568;52.128;5.434;2023-02-08T05:50:44;15.63;;;6.13;;
71715;SDS011;59568;52.128;5.434;2023-02-08T05:53:11;18.08;;;8.20;;
71715;SDS011;59568;52.128;5.434;2023-02-08T05:55:38;15.77;;;7.57;;
71715;SDS011;59568;52.128;5.434;2023-02-08T05:58:04;14.82;;;7.32;;
71715;SDS011;59568;52.128;5.434;2023-02-08T06:00:31;15.37;;;7.60;;
71715;SDS011;59568;52.128;5.434;2023-02-08T06:02:57;17.00;;;7.53;;
71715;SDS011;59568;52.128;5.434;2023-02-08T06:05:24;15.90;;;7.53;;
71715;SDS011;59568;52.128;5.434;2023-02-08T06:07:50;11.15;;;6.53;;
71715;SDS011;59568;52.128;5.434;2023-02-08T06:10:17;15.77;;;7.53;;
71715;SDS011;59568;52.128;5.434;2023-02-08T06:12:43;14.37;;;5.80;;
71715;SDS011;59568;52.128;5.434;2023-02-08T06:15:10;12.30;;;6.45;;
71715;SDS011;59568;52.128;5.434;2023-02-08T06:17:37;12.98;;;7.35;;
71715;SDS011;59568;52.128;5.434;2023-02-08T06:20:03;12.90;;;7.75;;
71715;SDS011;59568;52.128;5.434;2023-02-08T06:22:30;12.35;;;6.65;;
71715;SDS011;59568;52.128;5.434;2023-02-08T06:24:59;15.83;;;7.30;;
71715;SDS011;59568;52.128;5.434;2023-02-08T06:27:26;14.77;;;7.25;;
71715;SDS011;59568;52.128;5.434;2023-02-08T06:29:53;13.18;;;7.25;;
71715;SDS011;59568;52.128;5.434;2023-02-08T06:32:19;12.35;;;6.70;;
71715;SDS011;59568;52.128;5.434;2023-02-08T06:34:46;19.25;;;6.97;;
71715;SDS011;59568;52.128;5.434;2023-02-08T06:37:16;15.20;;;7.43;;
71715;SDS011;59568;52.128;5.434;2023-02-08T06:39:43;17.05;;;7.75;;
71715;SDS011;59568;52.128;5.434;2023-02-08T06:42:10;13.70;;;7.57;;
71715;SDS011;59568;52.128;5.434;2023-02-08T06:44:36;12.65;;;6.63;;
71715;SDS011;59568;52.128;5.434;2023-02-08T06:47:08;13.32;;;7.25;;
71715;SDS011;59568;52.128;5.434;2023-02-08T06:49:35;14.70;;;6.60;;
71715;SDS011;59568;52.128;5.434;2023-02-08T06:52:02;15.07;;;8.02;;
71715;SDS011;59568;52.128;5.434;2023-02-08T06:54:28;15.48;;;7.38;;
71715;SDS011;59568;52.128;5.434;2023-02-08T06:56:55;15.50;;;6.80;;
71715;SDS011;59568;52.128;5.434;2023-02-08T06:59:21;16.30;;;7.53;;
71715;SDS011;59568;52.128;5.434;2023-02-08T07:01:48;16.97;;;6.97;;
71715;SDS011;59568;52.128;5.434;2023-02-08T07:04:14;16.77;;;7.20;;
71715;SDS011;59568;52.128;5.434;2023-02-08T07:06:41;13.77;;;6.63;;
71715;SDS011;59568;52.128;5.434;2023-02-08T07:09:07;16.92;;;7.95;;
71715;SDS011;59568;52.128;5.434;2023-02-08T07:11:34;15.52;;;8.38;;
71715;SDS011;59568;52.128;5.434;2023-02-08T07:14:00;15.93;;;7.57;;
71715;SDS011;59568;52.128;5.434;2023-02-08T07:16:27;14.38;;;7.15;;
71715;SDS011;59568;52.128;5.434;2023-02-08T07:18:54;14.48;;;6.97;;
71715;SDS011;59568;52.128;5.434;2023-02-08T07:21:21;15.48;;;8.13;;
71715;SDS011;59568;52.128;5.434;2023-02-08T07:23:47;17.42;;;8.35;;
71715;SDS011;59568;52.128;5.434;2023-02-08T07:26:14;20.97;;;8.07;;
71715;SDS011;59568;52.128;5.434;2023-02-08T07:28:40;19.10;;;8.77;;
71715;SDS011;59568;52.128;5.434;2023-02-08T07:31:11;18.85;;;8.57;;
71715;SDS011;59568;52.128;5.434;2023-02-08T07:33:40;18.17;;;8.10;;
71715;SDS011;59568;52.128;5.434;2023-02-08T07:36:07;14.05;;;6.97;;
71715;SDS011;59568;52.128;5.434;2023-02-08T07:38:36;15.10;;;6.47;;
71715;SDS011;59568;52.128;5.434;2023-02-08T07:41:04;16.05;;;8.40;;
71715;SDS011;59568;52.128;5.434;2023-02-08T07:43:38;15.02;;;7.97;;
71715;SDS011;59568;52.128;5.434;2023-02-08T07:46:09;17.15;;;8.80;;
71715;SDS011;59568;52.128;5.434;2023-02-08T07:48:36;18.55;;;7.88;;
71715;SDS011;59568;52.128;5.434;2023-02-08T07:51:05;15.53;;;7.70;;
71715;SDS011;59568;52.128;5.434;2023-02-08T07:53:33;16.92;;;8.07;;
71715;SDS011;59568;52.128;5.434;2023-02-08T07:56:00;24.52;;;9.00;;
71715;SDS011;59568;52.128;5.434;2023-02-08T07:58:26;16.83;;;8.05;;
71715;SDS011;59568;52.128;5.434;2023-02-08T08:00:53;16.30;;;8.75;;
71715;SDS011;59568;52.128;5.434;2023-02-08T08:03:20;13.07;;;7.03;;
71715;SDS011;59568;52.128;5.434;2023-02-08T08:05:47;14.93;;;7.97;;
71715;SDS011;59568;52.128;5.434;2023-02-08T08:08:18;17.05;;;7.07;;
71715;SDS011;59568;52.128;5.434;2023-02-08T08:10:45;13.98;;;6.47;;
71715;SDS011;59568;52.128;5.434;2023-02-08T08:13:12;17.63;;;7.47;;
71715;SDS011;59568;52.128;5.434;2023-02-08T08:15:39;14.63;;;7.67;;
71715;SDS011;59568;52.128;5.434;2023-02-08T08:18:06;17.75;;;9.90;;
71715;SDS011;59568;52.128;5.434;2023-02-08T08:20:33;17.83;;;8.32;;
71715;SDS011;59568;52.128;5.434;2023-02-08T08:23:00;17.85;;;9.13;;
71715;SDS011;59568;52.128;5.434;2023-02-08T08:25:27;16.92;;;7.78;;
71715;SDS011;59568;52.128;5.434;2023-02-08T08:27:53;14.43;;;8.47;;
71715;SDS011;59568;52.128;5.434;2023-02-08T08:30:20;15.07;;;8.20;;
71715;SDS011;59568;52.128;5.434;2023-02-08T08:32:47;18.48;;;9.18;;
71715;SDS011;59568;52.128;5.434;2023-02-08T08:35:13;14.88;;;8.18;;
71715;SDS011;59568;52.128;5.434;2023-02-08T08:37:40;18.05;;;9.55;;
71715;SDS011;59568;52.128;5.434;2023-02-08T08:40:07;16.03;;;8.97;;
71715;SDS011;59568;52.128;5.434;2023-02-08T08:42:34;16.27;;;9.32;;
71715;SDS011;59568;52.128;5.434;2023-02-08T08:45:10;16.63;;;8.85;;
71715;SDS011;59568;52.128;5.434;2023-02-08T08:47:37;18.38;;;7.88;;
71715;SDS011;59568;52.128;5.434;2023-02-08T08:50:03;16.98;;;9.63;;
71715;SDS011;59568;52.128;5.434;2023-02-08T08:52:30;19.77;;;8.60;;
71715;SDS011;59568;52.128;5.434;2023-02-08T08:54:57;13.75;;;8.13;;
71715;SDS011;59568;52.128;5.434;2023-02-08T08:57:23;15.93;;;8.68;;
71715;SDS011;59568;52.128;5.434;2023-02-08T08:59:50;14.55;;;8.75;;
71715;SDS011;59568;52.128;5.434;2023-02-08T09:02:16;17.55;;;9.40;;
71715;SDS011;59568;52.128;5.434;2023-02-08T09:04:43;19.37;;;9.73;;
71715;SDS011;59568;52.128;5.434;2023-02-08T09:07:09;15.35;;;8.85;;
71715;SDS011;59568;52.128;5.434;2023-02-08T09:09:36;15.32;;;8.85;;
71715;SDS011;59568;52.128;5.434;2023-02-08T09:12:02;25.67;;;9.65;;
71715;SDS011;59568;52.128;5.434;2023-02-08T09:14:30;16.33;;;9.38;;
71715;SDS011;59568;52.128;5.434;2023-02-08T09:16:56;19.80;;;8.83;;
71715;SDS011;59568;52.128;5.434;2023-02-08T09:19:23;16.58;;;8.73;;
71715;SDS011;59568;52.128;5.434;2023-02-08T09:21:50;22.45;;;9.77;;
71715;SDS011;59568;52.128;5.434;2023-02-08T09:24:16;16.25;;;8.63;;
71715;SDS011;59568;52.128;5.434;2023-02-08T09:26:43;13.45;;;8.02;;
71715;SDS011;59568;52.128;5.434;2023-02-08T09:29:11;17.80;;;8.90;;
71715;SDS011;59568;52.128;5.434;2023-02-08T09:31:38;18.17;;;9.82;;
71715;SDS011;59568;52.128;5.434;2023-02-08T09:34:05;17.58;;;9.57;;
71715;SDS011;59568;52.128;5.434;2023-02-08T09:36:33;15.57;;;9.35;;
71715;SDS011;59568;52.128;5.434;2023-02-08T09:39:15;19.52;;;8.82;;
71715;SDS011;59568;52.128;5.434;2023-02-08T09:44:50;16.40;;;9.70;;
71715;SDS011;59568;52.128;5.434;2023-02-08T09:47:30;18.20;;;8.85;;
71715;SDS011;59568;52.128;5.434;2023-02-08T09:50:18;16.42;;;8.45;;
71715;SDS011;59568;52.128;5.434;2023-02-08T09:55:41;12.57;;;7.80;;
71715;SDS011;59568;52.128;5.434;2023-02-08T10:00:50;18.25;;;8.68;;
71715;SDS011;59568;52.128;5.434;2023-02-08T10:05:54;15.90;;;8.88;;
71715;SDS011;59568;52.128;5.434;2023-02-08T10:08:21;14.93;;;8.00;;
71715;SDS011;59568;52.128;5.434;2023-02-08T10:11:19;19.95;;;7.88;;
71715;SDS011;59568;52.128;5.434;2023-02-08T10:25:53;21.27;;;7.70;;
71715;SDS011;59568;52.128;5.434;2023-02-08T10:36:41;13.43;;;6.67;;
71715;SDS011;59568;52.128;5.434;2023-02-08T10:39:14;11.70;;;7.18;;
71715;SDS011;59568;52.128;5.434;2023-02-08T10:41:45;15.88;;;7.30;;
71715;SDS011;59568;52.128;5.434;2023-02-08T10:52:26;13.05;;;6.70;;
71715;SDS011;59568;52.128;5.434;2023-02-08T10:54:53;14.50;;;7.25;;
71715;SDS011;59568;52.128;5.434;2023-02-08T10:57:23;14.85;;;7.18;;
71715;SDS011;59568;52.128;5.434;2023-02-08T10:59:55;12.57;;;7.07;;
71715;SDS011;59568;52.128;5.434;2023-02-08T11:02:33;11.23;;;6.93;;
71715;SDS011;59568;52.128;5.434;2023-02-08T11:05:12;13.38;;;7.03;;
71715;SDS011;59568;52.128;5.434;2023-02-08T11:07:40;11.07;;;6.50;;
71715;SDS011;59568;52.128;5.434;2023-02-08T11:13:06;11.25;;;6.00;;
71715;SDS011;59568;52.128;5.434;2023-02-08T11:15:43;11.13;;;5.77;;
71715;SDS011;59568;52.128;5.434;2023-02-08T11:21:08;12.75;;;6.43;;
71715;SDS011;59568;52.128;5.434;2023-02-08T11:23:48;9.00;;;5.07;;
71715;SDS011;59568;52.128;5.434;2023-02-08T11:28:59;9.30;;;4.50;;
71715;SDS011;59568;52.128;5.434;2023-02-08T11:34:31;10.40;;;4.75;;
71715;SDS011;59568;52.128;5.434;2023-02-08T11:37:17;11.07;;;4.75;;
71715;SDS011;59568;52.128;5.434;2023-02-08T11:39:49;9.02;;;4.97;;
71715;SDS011;59568;52.128;5.434;2023-02-08T11:42:35;10.47;;;5.03;;
71715;SDS011;59568;52.128;5.434;2023-02-08T11:45:06;8.40;;;4.47;;
71715;SDS011;59568;52.128;5.434;2023-02-08T11:47:34;9.07;;;5.47;;
71715;SDS011;59568;52.128;5.434;2023-02-08T11:50:20;9.00;;;5.15;;
71715;SDS011;59568;52.128;5.434;2023-02-08T11:53:06;10.60;;;5.35;;
71715;SDS011;59568;52.128;5.434;2023-02-08T11:55:42;7.93;;;4.47;;
71715;SDS011;59568;52.128;5.434;2023-02-08T12:03:46;10.65;;;5.68;;
71715;SDS011;59568;52.128;5.434;2023-02-08T12:08:55;9.50;;;5.70;;
71715;SDS011;59568;52.128;5.434;2023-02-08T12:11:26;14.02;;;5.90;;
71715;SDS011;59568;52.128;5.434;2023-02-08T12:16:56;10.88;;;5.63;;
71715;SDS011;59568;52.128;5.434;2023-02-08T12:24:54;8.25;;;4.43;;
71715;SDS011;59568;52.128;5.434;2023-02-08T12:32:49;7.47;;;4.35;;
71715;SDS011;59568;52.128;5.434;2023-02-08T12:47:45;6.40;;;3.55;;
71715;SDS011;59568;52.128;5.434;2023-02-08T12:50:38;8.60;;;3.90;;
71715;SDS011;59568;52.128;5.434;2023-02-08T12:53:17;7.28;;;3.88;;
71715;SDS011;59568;52.128;5.434;2023-02-08T12:55:51;5.20;;;3.65;;
71715;SDS011;59568;52.128;5.434;2023-02-08T12:58:30;7.93;;;4.00;;
71715;SDS011;59568;52.128;5.434;2023-02-08T13:01:08;8.18;;;4.35;;
71715;SDS011;59568;52.128;5.434;2023-02-08T13:03:44;7.90;;;4.17;;
71715;SDS011;59568;52.128;5.434;2023-02-08T13:06:17;9.15;;;3.92;;
71715;SDS011;59568;52.128;5.434;2023-02-08T13:08:54;8.30;;;4.18;;
71715;SDS011;59568;52.128;5.434;2023-02-08T13:11:32;6.05;;;3.42;;
71715;SDS011;59568;52.128;5.434;2023-02-08T13:14:13;6.78;;;3.90;;
71715;SDS011;59568;52.128;5.434;2023-02-08T13:16:52;7.03;;;4.00;;
71715;SDS011;59568;52.128;5.434;2023-02-08T13:19:25;6.72;;;3.65;;
71715;SDS011;59568;52.128;5.434;2023-02-08T13:21:57;6.88;;;3.75;;
71715;SDS011;59568;52.128;5.434;2023-02-08T13:24:27;7.68;;;4.15;;
71715;SDS011;59568;52.128;5.434;2023-02-08T13:26:58;9.10;;;4.35;;
71715;SDS011;59568;52.128;5.434;2023-02-08T13:29:25;7.50;;;4.60;;
71715;SDS011;59568;52.128;5.434;2023-02-08T13:31:59;7.95;;;4.22;;
71715;SDS011;59568;52.128;5.434;2023-02-08T13:34:33;8.50;;;4.25;;
71715;SDS011;59568;52.128;5.434;2023-02-08T13:37:15;8.10;;;4.30;;
71715;SDS011;59568;52.128;5.434;2023-02-08T13:40:07;7.80;;;4.18;;
71715;SDS011;59568;52.128;5.434;2023-02-08T13:43:04;7.27;;;3.90;;
71715;SDS011;59568;52.128;5.434;2023-02-08T13:46:02;7.68;;;4.18;;
71715;SDS011;59568;52.128;5.434;2023-02-08T13:48:41;7.00;;;4.57;;
71715;SDS011;59568;52.128;5.434;2023-02-08T13:56:36;10.27;;;5.10;;
71715;SDS011;59568;52.128;5.434;2023-02-08T13:59:30;8.02;;;4.32;;
71715;SDS011;59568;52.128;5.434;2023-02-08T14:04:42;10.90;;;4.95;;
71715;SDS011;59568;52.128;5.434;2023-02-08T14:07:22;7.80;;;4.25;;
71715;SDS011;59568;52.128;5.434;2023-02-08T14:12:41;5.90;;;3.67;;
71715;SDS011;59568;52.128;5.434;2023-02-08T14:15:35;8.38;;;4.15;;
71715;SDS011;59568;52.128;5.434;2023-02-08T14:18:04;8.68;;;3.70;;
71715;SDS011;59568;52.128;5.434;2023-02-08T14:24:00;5.73;;;3.33;;
71715;SDS011;59568;52.128;5.434;2023-02-08T14:26:29;6.43;;;3.13;;
71715;SDS011;59568;52.128;5.434;2023-02-08T14:28:57;5.72;;;3.42;;
71715;SDS011;59568;52.128;5.434;2023-02-08T14:31:41;6.30;;;3.50;;
71715;SDS011;59568;52.128;5.434;2023-02-08T14:34:20;7.18;;;3.33;;
71715;SDS011;59568;52.128;5.434;2023-02-08T14:36:56;5.70;;;3.00;;
71715;SDS011;59568;52.128;5.434;2023-02-08T14:39:36;6.03;;;2.72;;
71715;SDS011;59568;52.128;5.434;2023-02-08T14:42:07;5.72;;;3.20;;
71715;SDS011;59568;52.128;5.434;2023-02-08T14:50:04;4.73;;;2.67;;
71715;SDS011;59568;52.128;5.434;2023-02-08T14:52:42;6.85;;;3.15;;
71715;SDS011;59568;52.128;5.434;2023-02-08T14:55:23;3.58;;;2.13;;
71715;SDS011;59568;52.128;5.434;2023-02-08T14:57:55;5.60;;;2.40;;
71715;SDS011;59568;52.128;5.434;2023-02-08T15:00:28;6.13;;;2.40;;
71715;SDS011;59568;52.128;5.434;2023-02-08T15:03:06;5.80;;;2.33;;
71715;SDS011;59568;52.128;5.434;2023-02-08T15:05:42;4.60;;;2.47;;
71715;SDS011;59568;52.128;5.434;2023-02-08T15:08:23;5.82;;;2.28;;
71715;SDS011;59568;52.128;5.434;2023-02-08T15:10:50;3.97;;;2.08;;
71715;SDS011;59568;52.128;5.434;2023-02-08T15:13:18;3.92;;;2.00;;
71715;SDS011;59568;52.128;5.434;2023-02-08T15:15:50;5.23;;;2.10;;
71715;SDS011;59568;52.128;5.434;2023-02-08T15:18:21;7.25;;;2.53;;
71715;SDS011;59568;52.128;5.434;2023-02-08T15:23:56;6.80;;;2.40;;
71715;SDS011;59568;52.128;5.434;2023-02-08T15:26:28;8.20;;;2.67;;
71715;SDS011;59568;52.128;5.434;2023-02-08T15:28:55;4.83;;;2.60;;
71715;SDS011;59568;52.128;5.434;2023-02-08T15:31:26;3.17;;;1.95;;
71715;SDS011;59568;52.128;5.434;2023-02-08T15:33:58;5.00;;;2.45;;
71715;SDS011;59568;52.128;5.434;2023-02-08T15:36:31;4.18;;;2.22;;
71715;SDS011;59568;52.128;5.434;2023-02-08T15:39:08;6.00;;;2.70;;
71715;SDS011;59568;52.128;5.434;2023-02-08T15:41:40;3.93;;;2.20;;
71715;SDS011;59568;52.128;5.434;2023-02-08T15:44:15;4.32;;;2.28;;
71715;SDS011;59568;52.128;5.434;2023-02-08T15:46:47;5.15;;;2.45;;
71715;SDS011;59568;52.128;5.434;2023-02-08T15:49:31;5.78;;;2.70;;
71715;SDS011;59568;52.128;5.434;2023-02-08T15:52:04;5.20;;;2.45;;
71715;SDS011;59568;52.128;5.434;2023-02-08T15:54:33;7.67;;;2.83;;
71715;SDS011;59568;52.128;5.434;2023-02-08T15:57:03;5.05;;;2.28;;
71715;SDS011;59568;52.128;5.434;2023-02-08T15:59:36;8.38;;;2.35;;
71715;SDS011;59568;52.128;5.434;2023-02-08T16:02:22;5.05;;;2.20;;
71715;SDS011;59568;52.128;5.434;2023-02-08T16:04:49;4.63;;;2.30;;
71715;SDS011;59568;52.128;5.434;2023-02-08T16:07:37;5.43;;;2.27;;
71715;SDS011;59568;52.128;5.434;2023-02-08T16:10:05;5.47;;;2.47;;
71715;SDS011;59568;52.128;5.434;2023-02-08T16:12:35;5.88;;;2.65;;
71715;SDS011;59568;52.128;5.434;2023-02-08T16:15:01;5.70;;;2.50;;
71715;SDS011;59568;52.128;5.434;2023-02-08T16:17:41;4.97;;;2.35;;
71715;SDS011;59568;52.128;5.434;2023-02-08T16:20:26;4.67;;;2.13;;
71715;SDS011;59568;52.128;5.434;2023-02-08T16:23:03;4.70;;;2.25;;
71715;SDS011;59568;52.128;5.434;2023-02-08T16:25:48;4.80;;;2.40;;
71715;SDS011;59568;52.128;5.434;2023-02-08T16:28:31;6.18;;;2.00;;
71715;SDS011;59568;52.128;5.434;2023-02-08T16:31:00;5.03;;;1.75;;
71715;SDS011;59568;52.128;5.434;2023-02-08T16:33:30;5.30;;;2.33;;
71715;SDS011;59568;52.128;5.434;2023-02-08T16:36:00;4.45;;;2.25;;
71715;SDS011;59568;52.128;5.434;2023-02-08T16:38:28;7.47;;;2.22;;
71715;SDS011;59568;52.128;5.434;2023-02-08T16:40:57;3.65;;;2.00;;
71715;SDS011;59568;52.128;5.434;2023-02-08T16:43:38;7.03;;;2.40;;
71715;SDS011;59568;52.128;5.434;2023-02-08T16:48:39;3.92;;;2.10;;
71715;SDS011;59568;52.128;5.434;2023-02-08T16:51:12;6.30;;;2.50;;
71715;SDS011;59568;52.128;5.434;2023-02-08T16:53:41;8.25;;;4.10;;
71715;SDS011;59568;52.128;5.434;2023-02-08T16:56:09;11.70;;;3.78;;
71715;SDS011;59568;52.128;5.434;2023-02-08T16:58:36;6.07;;;2.60;;
71715;SDS011;59568;52.128;5.434;2023-02-08T17:01:03;5.68;;;2.72;;
71715;SDS011;59568;52.128;5.434;2023-02-08T17:03:30;5.32;;;3.05;;
71715;SDS011;59568;52.128;5.434;2023-02-08T17:05:58;6.65;;;3.13;;
71715;SDS011;59568;52.128;5.434;2023-02-08T17:08:26;6.38;;;3.58;;
71715;SDS011;59568;52.128;5.434;2023-02-08T17:10:53;6.90;;;3.20;;
71715;SDS011;59568;52.128;5.434;2023-02-08T17:13:24;7.13;;;3.10;;
71715;SDS011;59568;52.128;5.434;2023-02-08T17:15:54;8.35;;;2.90;;
71715;SDS011;59568;52.128;5.434;2023-02-08T17:18:21;6.50;;;3.22;;
71715;SDS011;59568;52.128;5.434;2023-02-08T17:20:47;6.57;;;3.50;;
71715;SDS011;59568;52.128;5.434;2023-02-08T17:23:14;6.67;;;3.40;;
71715;SDS011;59568;52.128;5.434;2023-02-08T17:25:41;3.67;;;2.42;;
71715;SDS011;59568;52.128;5.434;2023-02-08T17:28:17;8.30;;;2.95;;
71715;SDS011;59568;52.128;5.434;2023-02-08T17:30:45;8.98;;;3.78;;
71715;SDS011;59568;52.128;5.434;2023-02-08T17:33:14;7.40;;;3.72;;
71715;SDS011;59568;52.128;5.434;2023-02-08T17:35:48;7.67;;;2.90;;
71715;SDS011;59568;52.128;5.434;2023-02-08T17:38:16;6.15;;;2.90;;
71715;SDS011;59568;52.128;5.434;2023-02-08T17:40:44;6.15;;;2.85;;
71715;SDS011;59568;52.128;5.434;2023-02-08T17:43:11;5.47;;;2.95;;